Time;durP1;ratioP1;P1;durP2;ratioP2;P2;SDS_P1;SDS_P2;PMS_P1;PMS_P2;Temp;Humidity;BMP_temperature;BMP_pressure;BME280_temperature;BME280_humidity;BME280_pressure;Samples;Min_cycle;Max_cycle;Signal;HPM_P1;HPM_P2
2021/12/30 09:54:48;;;;;;;0.40;0.40;;;;;;;3.85;61.91;94167.75;2614030;54;20226;-80
2021/12/30 09:57:17;;;;;;;0.70;0.70;;;;;;;5.56;61.57;94398.97;2615948;54;20145;-76
2021/12/30 10:00:22;;;;;;;0.67;0.67;;;;;;;4.43;61.49;94278.47;2617409;47;20207;-80
2021/12/30 10:02:51;;;;;;;0.40;0.40;;;;;;;6.23;65.45;94531.41;2617942;54;20161;-75
2021/12/30 10:27:29;;;;;;;1.10;1.00;;;;;;;4.20;61.68;94339.06;2617791;46;20172;-80
2021/12/30 10:43:57;;;;;;;0.77;0.77;;;;;;;4.52;63.93;94460.53;2615452;54;20184;-77
2021/12/30 10:46:40;;;;;;;0.40;0.40;;;;;;;3.08;74.46;94205.81;2616138;39;20551;-76
2021/12/30 10:49:12;;;;;;;0.50;0.50;;;;;;;5.28;64.27;94513.50;2615342;47;20355;-77
2021/12/30 10:51:48;;;;;;;2.77;0.67;;;;;;;4.91;62.87;94505.31;2615985;54;20184;-77
2021/12/30 10:54:24;;;;;;;0.80;0.80;;;;;;;3.33;64.37;94331.69;2615859;46;20160;-79
2021/12/30 10:56:58;;;;;;;0.50;0.50;;;;;;;3.51;65.08;94404.75;2615350;46;20184;-76
2021/12/30 10:59:33;;;;;;;0.60;0.60;;;;;;;5.09;68.28;94539.19;2616149;54;20167;-77
2021/12/30 11:02:08;;;;;;;0.50;0.50;;;;;;;4.25;65.12;94422.00;2615497;54;20259;-81
2021/12/30 11:04:56;;;;;;;1.23;1.17;;;;;;;5.18;66.25;94484.91;2615636;54;20163;-78
2021/12/30 11:13:22;;;;;;;0.80;0.80;;;;;;;4.98;70.55;94366.75;2615976;47;20176;-80
2021/12/30 11:17:04;;;;;;;;;;;;;;;;;;;;;
2021/12/30 11:20:01;;;;;;;0.87;0.87;;;;;;;6.72;63.39;94412.59;2615314;54;20673;-83
2021/12/30 11:22:35;;;;;;;1.00;1.00;;;;;;;6.80;58.52;94522.00;2615304;54;20159;-77
2021/12/30 11:25:07;;;;;;;0.60;0.60;;;;;;;8.32;68.10;94542.41;2615142;47;20736;-75
2021/12/30 11:27:36;;;;;;;0.70;0.70;;;;;;;8.90;65.92;94594.72;2615786;54;20165;-76
2021/12/30 11:30:13;;;;;;;0.50;0.50;;;;;;;8.59;55.98;94606.25;2615244;54;20157;-77
2021/12/30 11:32:48;;;;;;;0.70;0.70;;;;;;;7.10;61.73;94568.38;2615687;47;20160;-76
2021/12/30 11:35:22;;;;;;;0.70;0.70;;;;;;;8.44;67.57;94596.50;2615623;47;20172;-77
2021/12/30 11:37:53;;;;;;;0.53;0.53;;;;;;;8.49;59.27;94587.53;2615278;54;20177;-79
2021/12/30 11:40:29;;;;;;;0.90;0.90;;;;;;;9.27;66.34;94572.09;2614973;54;20160;-77
2021/12/30 11:43:00;;;;;;;0.47;0.47;;;;;;;9.57;58.39;94551.91;2615482;54;20244;-79
2021/12/30 11:45:31;;;;;;;0.97;0.70;;;;;;;8.60;54.42;94534.31;2614879;54;20172;-77
2021/12/30 11:48:01;;;;;;;0.60;0.60;;;;;;;8.09;56.50;94526.66;2615397;54;20242;-76
2021/12/30 11:50:43;;;;;;;1.70;0.90;;;;;;;7.91;56.34;94511.88;2615346;47;20160;-77
2021/12/30 11:53:13;;;;;;;0.70;0.70;;;;;;;8.02;58.44;94584.94;2615294;47;20179;-77
2021/12/30 11:55:58;;;;;;;0.50;0.50;;;;;;;7.71;56.48;94563.22;2615454;54;20177;-77
2021/12/30 11:58:48;;;;;;;0.77;0.77;;;;;;;8.22;58.92;94568.09;2615484;54;20168;-78
2021/12/30 12:01:36;;;;;;;0.80;0.80;;;;;;;8.22;64.79;94525.78;2615367;46;20172;-80
2021/12/30 12:04:13;;;;;;;0.70;0.70;;;;;;;8.09;56.48;94490.00;2614675;54;20164;-80
2021/12/30 12:07:12;;;;;;;0.60;0.60;;;;;;;8.44;57.99;94486.44;2614374;54;20159;-79
2021/12/30 12:09:44;;;;;;;0.70;0.70;;;;;;;9.54;63.22;94581.50;2614819;54;20411;-79
2021/12/30 12:12:17;;;;;;;0.93;0.93;;;;;;;10.02;65.37;94585.25;2615683;54;20153;-80
2021/12/30 12:15:05;;;;;;;0.40;0.40;;;;;;;10.09;54.29;94589.03;2615344;54;20612;-80
2021/12/30 12:17:41;;;;;;;0.60;0.60;;;;;;;8.82;62.40;94403.13;2616041;39;20672;-79
2021/12/30 12:20:23;;;;;;;0.50;0.50;;;;;;;8.70;54.03;94467.66;2615523;54;20195;-79
2021/12/30 12:22:54;;;;;;;0.70;0.70;;;;;;;9.07;54.65;94551.56;2615542;54;20220;-77
2021/12/30 12:25:29;;;;;;;1.30;1.30;;;;;;;8.82;54.11;94552.06;2615379;39;21569;-77
2021/12/30 12:27:59;;;;;;;0.60;0.60;;;;;;;8.39;55.21;94544.09;2615491;54;20160;-78
2021/12/30 12:30:39;;;;;;;0.50;0.50;;;;;;;8.40;52.90;94576.56;2614644;47;20244;-78
2021/12/30 12:33:32;;;;;;;0.40;0.40;;;;;;;7.09;56.53;94460.63;2615516;54;20153;-79
2021/12/30 12:36:01;;;;;;;0.60;0.60;;;;;;;8.09;57.64;94628.22;2615235;47;20469;-78
2021/12/30 12:38:48;;;;;;;0.70;0.70;;;;;;;7.19;59.05;94553.28;2615063;54;20157;-75
2021/12/30 12:41:25;;;;;;;1.00;1.00;;;;;;;7.16;57.64;94588.34;2615134;54;20174;-79
2021/12/30 12:43:59;;;;;;;0.57;0.57;;;;;;;6.59;57.49;94602.69;2615474;54;20188;-75
2021/12/30 12:46:42;;;;;;;0.60;0.60;;;;;;;6.72;59.05;94606.78;2615150;54;20161;-74
2021/12/30 12:49:18;;;;;;;1.17;1.07;;;;;;;7.08;62.60;94560.56;2615137;54;20156;-75
2021/12/30 12:51:55;;;;;;;0.60;0.60;;;;;;;6.14;59.21;94576.66;2615089;54;20145;-74
2021/12/30 12:54:39;;;;;;;0.60;0.60;;;;;;;5.96;61.11;94610.25;2615731;39;21610;-75
2021/12/30 12:57:10;;;;;;;0.50;0.50;;;;;;;6.46;67.07;94611.19;2615050;54;20171;-76
2021/12/30 12:59:40;;;;;;;0.60;0.60;;;;;;;6.11;60.73;94623.63;2615337;54;20153;-77
2021/12/30 13:02:11;;;;;;;0.67;0.67;;;;;;;4.80;61.32;94537.00;2615005;54;20688;-74
2021/12/30 13:04:47;;;;;;;0.90;0.90;;;;;;;5.17;62.32;94604.19;2615291;47;20203;-77
2021/12/30 13:07:21;;;;;;;0.90;0.90;;;;;;;4.85;63.06;94580.03;2615515;54;20144;-77
2021/12/30 13:13:02;;;;;;;0.70;0.70;;;;;;;6.02;61.55;94630.94;2614433;39;20685;-77
2021/12/30 13:15:43;;;;;;;0.70;0.70;;;;;;;5.48;61.31;94591.66;2614532;54;20248;-77
2021/12/30 13:18:18;;;;;;;0.73;0.73;;;;;;;6.25;60.87;94648.91;2614306;54;20160;-77
2021/12/30 13:20:48;;;;;;;1.63;1.63;;;;;;;5.94;59.46;94596.81;2614991;54;20184;-77
2021/12/30 13:23:30;;;;;;;0.50;0.50;;;;;;;5.45;60.70;94536.75;2612927;54;20273;-77
2021/12/30 13:26:05;;;;;;;0.43;0.43;;;;;;;5.15;61.49;94564.78;2615064;54;20177;-78
2021/12/30 13:28:34;;;;;;;0.60;0.60;;;;;;;5.40;59.71;94543.53;2615857;39;20633;-77
2021/12/30 13:31:18;;;;;;;0.40;0.40;;;;;;;6.48;60.18;94653.50;2615332;54;20153;-77
2021/12/30 13:34:04;;;;;;;2.00;0.97;;;;;;;7.65;66.96;94641.19;2615175;47;20160;-77
2021/12/30 13:36:33;;;;;;;0.60;0.60;;;;;;;8.13;60.95;94640.41;2615565;54;20153;-77
2021/12/30 13:39:42;;;;;;;0.80;0.80;;;;;;;8.95;64.74;94666.22;2615508;54;20708;-78
2021/12/30 13:42:21;;;;;;;0.70;0.65;;;;;;;9.25;63.10;94611.59;2614319;54;20920;-76
2021/12/30 13:44:51;;;;;;;0.77;0.77;;;;;;;9.55;56.02;94600.66;2615968;54;20153;-75
2021/12/30 13:47:35;;;;;;;0.93;0.93;;;;;;;9.03;54.48;94596.63;2616059;54;20161;-76
2021/12/30 13:50:08;;;;;;;1.00;1.00;;;;;;;9.06;53.52;94659.59;2615893;54;20156;-76
2021/12/30 13:52:39;;;;;;;0.87;0.73;;;;;;;8.02;55.86;94623.69;2615794;54;20152;-76
2021/12/30 13:55:23;;;;;;;1.17;1.17;;;;;;;8.02;55.67;94663.91;2615848;54;20145;-76
2021/12/30 13:58:14;;;;;;;1.27;1.27;;;;;;;6.83;57.78;94611.53;2616058;54;20157;-77
2021/12/30 14:00:47;;;;;;;0.40;0.40;;;;;;;7.49;62.44;94666.56;2615391;54;20168;-78
2021/12/30 14:03:26;;;;;;;1.50;1.00;;;;;;;6.29;59.59;94632.91;2615377;39;20590;-74
2021/12/30 14:05:54;;;;;;;0.90;0.90;;;;;;;6.85;61.72;94619.31;2615537;47;20180;-74
2021/12/30 14:08:26;;;;;;;0.40;0.40;;;;;;;7.10;60.94;94669.75;2616250;39;20633;-74
2021/12/30 14:10:58;;;;;;;0.50;0.50;;;;;;;6.50;60.57;94614.94;2615294;54;20196;-73
2021/12/30 14:13:45;;;;;;;0.40;0.40;;;;;;;7.22;59.95;94641.41;2613807;47;20181;-75
2021/12/30 14:16:26;;;;;;;0.87;0.80;;;;;;;6.31;59.90;94633.03;2615627;54;20153;-76
2021/12/30 14:18:57;;;;;;;0.40;0.40;;;;;;;4.69;61.44;94515.38;2615824;54;20157;-76
2021/12/30 14:21:27;;;;;;;0.43;0.43;;;;;;;5.97;62.38;94659.47;2615655;54;20165;-75
2021/12/30 14:23:58;;;;;;;0.60;0.60;;;;;;;6.40;61.41;94606.75;2615574;47;20200;-75
2021/12/30 14:26:29;;;;;;;0.43;0.43;;;;;;;7.12;64.82;94686.72;2614124;54;21783;-76
2021/12/30 14:29:08;;;;;;;0.77;0.77;;;;;;;8.05;67.73;94684.47;2615545;54;20219;-75
2021/12/30 14:31:41;;;;;;;1.03;1.03;;;;;;;8.98;68.36;94702.38;2615680;54;20192;-76
2021/12/30 14:34:17;;;;;;;0.73;0.73;;;;;;;9.38;63.77;94668.56;2615359;54;20165;-76
2021/12/30 14:37:01;;;;;;;0.47;0.47;;;;;;;10.30;63.04;94710.03;2615833;39;20583;-79
2021/12/30 14:42:19;;;;;;;0.83;0.83;;;;;;;9.84;57.77;94658.91;2616010;47;20172;-78
2021/12/30 14:48:11;;;;;;;0.60;0.60;;;;;;;10.19;58.82;94677.84;2615922;47;20184;-79
2021/12/30 14:50:42;;;;;;;0.50;0.50;;;;;;;9.41;57.95;94548.53;2616768;54;20151;-78
2021/12/30 14:53:28;;;;;;;0.40;0.40;;;;;;;10.38;58.90;94672.78;2616052;54;20157;-78
2021/12/30 14:55:59;;;;;;;0.93;0.93;;;;;;;10.61;61.01;94723.13;2616525;54;20153;-79
2021/12/30 14:58:27;;;;;;;0.50;0.50;;;;;;;10.49;57.87;94719.88;2616183;54;20165;-78
2021/12/30 15:01:02;;;;;;;0.70;0.70;;;;;;;9.34;53.71;94657.81;2616261;54;20157;-78
2021/12/30 15:03:40;;;;;;;0.60;0.60;;;;;;;8.52;54.98;94577.78;2614938;47;20431;-77
2021/12/30 15:06:09;;;;;;;0.80;0.80;;;;;;;9.32;59.66;94623.81;2615372;54;20156;-77
2021/12/30 15:08:37;;;;;;;0.30;0.30;;;;;;;10.03;61.94;94685.72;2615550;54;20172;-77
2021/12/30 15:11:06;;;;;;;0.50;0.50;;;;;;;10.31;60.73;94725.63;2615337;47;20176;-78
2021/12/30 15:13:41;;;;;;;0.50;0.50;;;;;;;9.68;53.47;94691.56;2615550;54;20685;-77
2021/12/30 15:16:12;;;;;;;0.57;0.57;;;;;;;8.97;58.09;94613.38;2615827;54;20160;-79
2021/12/30 15:18:41;;;;;;;0.40;0.40;;;;;;;9.84;55.28;94751.53;2616347;39;20562;-76
2021/12/30 15:21:10;;;;;;;1.40;0.57;;;;;;;9.61;56.58;94693.44;2615881;54;20687;-76
2021/12/30 15:23:40;;;;;;;1.08;0.80;;;;;;;9.47;54.97;94729.66;2615216;54;20400;-77
2021/12/30 15:26:09;;;;;;;0.90;0.90;;;;;;;8.11;57.64;94563.41;2615909;54;20249;-76
2021/12/30 15:28:45;;;;;;;1.20;1.20;;;;;;;9.42;59.60;94691.31;2615663;54;20672;-78
2021/12/30 15:31:20;;;;;;;0.50;0.50;;;;;;;8.32;58.50;94585.47;2615560;47;20168;-77
2021/12/30 15:33:49;;;;;;;0.80;0.80;;;;;;;9.45;55.17;94761.41;2615664;47;20691;-77
2021/12/30 15:36:17;;;;;;;0.60;0.50;;;;;;;8.84;56.15;94736.44;2615988;47;20172;-77
2021/12/30 15:38:46;;;;;;;0.83;0.83;;;;;;;8.11;56.78;94721.38;2615528;54;20159;-78
2021/12/30 15:41:15;;;;;;;0.90;0.90;;;;;;;9.07;62.00;94774.78;2615447;54;20184;-77
2021/12/30 15:43:46;;;;;;;0.63;0.63;;;;;;;8.74;60.46;94662.63;2615357;54;20187;-77
2021/12/30 15:46:15;;;;;;;0.60;0.60;;;;;;;9.33;55.37;94788.47;2615592;54;20152;-77
2021/12/30 15:49:06;;;;;;;0.70;0.70;;;;;;;7.09;56.12;94597.91;2615481;47;20775;-77
2021/12/30 15:51:44;;;;;;;0.90;0.90;;;;;;;7.31;62.18;94620.69;2615782;47;20412;-77
2021/12/30 15:54:14;;;;;;;0.57;0.57;;;;;;;9.25;59.89;94786.81;2615977;54;20157;-76
2021/12/30 15:56:44;;;;;;;0.70;0.70;;;;;;;9.83;59.43;94818.72;2616290;54;20176;-77
2021/12/30 15:59:14;;;;;;;1.10;1.03;;;;;;;9.73;55.78;94818.31;2617108;54;20211;-77
2021/12/30 16:01:54;;;;;;;;;;;;;;;;;;;;;
2021/12/30 16:04:28;;;;;;;0.67;0.67;;;;;;;9.03;58.23;94672.16;2615547;54;20649;-76
2021/12/30 16:07:01;;;;;;;0.77;0.77;;;;;;;10.05;57.65;94809.59;2615870;54;20160;-77
2021/12/30 16:09:40;;;;;;;1.33;1.10;;;;;;;8.92;56.83;94665.41;2615495;47;20224;-77
2021/12/30 16:12:09;;;;;;;3.63;2.90;;;;;;;10.16;56.28;94834.03;2615381;54;20148;-75
2021/12/30 16:14:38;;;;;;;1.67;1.67;;;;;;;10.11;57.98;94815.47;2616272;31;20865;-75
2021/12/30 16:17:09;;;;;;;1.60;1.60;;;;;;;10.44;57.88;94831.53;2615623;47;20161;-75
2021/12/30 16:19:40;;;;;;;1.47;1.47;;;;;;;9.85;58.04;94747.31;2615459;46;20212;-75
2021/12/30 16:22:09;;;;;;;0.90;0.90;;;;;;;10.50;59.32;94818.34;2615452;54;20145;-75
2021/12/30 16:24:38;;;;;;;1.33;1.33;;;;;;;10.55;58.80;94822.75;2615226;54;20161;-75
2021/12/30 16:27:06;;;;;;;1.27;1.27;;;;;;;10.63;58.13;94825.88;2615288;47;20176;-75
2021/12/30 16:29:35;;;;;;;1.30;1.30;;;;;;;10.33;58.04;94844.63;2615334;54;20161;-76
2021/12/30 16:32:04;;;;;;;1.27;1.27;;;;;;;10.32;56.17;94820.50;2615747;54;20153;-75
2021/12/30 16:34:34;;;;;;;0.57;0.57;;;;;;;8.61;58.41;94739.03;2615545;54;20203;-75
2021/12/30 16:37:08;;;;;;;2.60;1.83;;;;;;;7.80;57.66;94770.09;2615592;54;20169;-75
2021/12/30 16:39:36;;;;;;;3.37;2.00;;;;;;;8.87;64.86;94830.47;2615479;54;20168;-74
2021/12/30 16:42:07;;;;;;;1.50;1.40;;;;;;;8.76;57.40;94854.72;2615062;54;20173;-77
2021/12/30 16:44:40;;;;;;;0.60;0.60;;;;;;;9.55;63.78;94834.59;2615850;39;20612;-76
2021/12/30 16:47:12;;;;;;;0.63;0.63;;;;;;;9.66;62.66;94864.72;2615401;47;20184;-74
2021/12/30 16:49:42;;;;;;;1.70;1.60;;;;;;;9.00;55.50;94855.00;2615163;54;20195;-74
2021/12/30 16:52:13;;;;;;;1.70;1.60;;;;;;;9.33;64.27;94867.63;2614956;54;20173;-75
2021/12/30 16:54:42;;;;;;;0.93;0.93;;;;;;;9.97;64.43;94873.00;2614763;54;20165;-75
2021/12/30 16:57:12;;;;;;;1.57;1.47;;;;;;;9.49;55.59;94820.22;2615061;54;20195;-75
2021/12/30 16:59:43;;;;;;;1.03;1.00;;;;;;;8.57;56.25;94837.66;2615186;54;20165;-75
2021/12/30 17:02:12;;;;;;;2.93;2.27;;;;;;;8.54;58.19;94862.25;2614946;54;20165;-75
2021/12/30 17:04:43;;;;;;;3.40;2.25;;;;;;;8.39;58.59;94795.25;2615352;47;20445;-75
2021/12/30 17:07:15;;;;;;;1.30;1.30;;;;;;;9.32;60.98;94816.00;2615750;39;20547;-75
2021/12/30 17:09:43;;;;;;;3.93;1.10;;;;;;;10.07;63.43;94830.19;2614270;54;20165;-75
2021/12/30 17:12:15;;;;;;;1.97;1.77;;;;;;;10.53;62.23;94853.81;2614959;54;20404;-74
2021/12/30 17:14:43;;;;;;;0.70;0.70;;;;;;;11.07;59.14;94885.44;2615610;47;20421;-74
2021/12/30 17:17:12;;;;;;;3.70;2.50;;;;;;;10.84;58.74;94837.88;2616732;54;21008;-74
2021/12/30 17:19:41;;;;;;;1.53;1.17;;;;;;;10.69;57.85;94811.91;2616439;54;20177;-73
2021/12/30 17:22:09;;;;;;;2.67;2.47;;;;;;;11.06;55.99;94878.34;2616257;31;20808;-73
2021/12/30 17:24:41;;;;;;;5.37;4.73;;;;;;;10.46;57.44;94825.94;2615541;47;20185;-76
2021/12/30 17:27:10;;;;;;;5.87;2.63;;;;;;;10.84;56.23;94900.94;2614612;54;20153;-74
2021/12/30 17:29:38;;;;;;;5.43;4.17;;;;;;;10.61;57.27;94910.03;2615688;54;20172;-75
2021/12/30 17:32:08;;;;;;;6.87;3.20;;;;;;;9.81;54.75;94909.16;2615877;47;20177;-73
2021/12/30 17:34:37;;;;;;;6.35;4.60;;;;;;;8.85;57.63;94910.19;2615540;46;20408;-74
2021/12/30 17:37:06;;;;;;;4.87;3.10;;;;;;;8.93;57.76;94909.06;2615733;54;20156;-75
2021/12/30 17:39:35;;;;;;;2.23;2.13;;;;;;;8.52;58.45;94919.31;2615763;47;20184;-74
2021/12/30 17:42:08;;;;;;;2.47;2.27;;;;;;;7.97;59.02;94875.91;2615684;54;20157;-75
2021/12/30 17:45:01;;;;;;;1.63;1.63;;;;;;;7.89;61.03;94909.38;2614382;39;21026;-78
2021/12/30 17:47:29;;;;;;;5.80;3.38;;;;;;;7.35;61.03;94874.44;2611872;39;20643;-78
2021/12/30 17:49:58;;;;;;;4.47;3.40;;;;;;;7.19;62.23;94871.56;2614657;47;20419;-77
2021/12/30 17:52:28;;;;;;;1.20;1.20;;;;;;;6.67;64.75;94963.31;2615940;54;20199;-76
2021/12/30 17:54:57;;;;;;;1.13;1.13;;;;;;;6.20;65.69;94895.44;2615671;54;20217;-76
2021/12/30 17:57:37;;;;;;;1.77;1.77;;;;;;;6.46;68.31;94898.16;2614636;39;20656;-77
2021/12/30 18:00:08;;;;;;;1.70;0.50;;;;;;;6.72;66.87;94967.06;2615372;39;20560;-79
2021/12/30 18:03:03;;;;;;;2.60;2.50;;;;;;;5.35;68.73;94758.81;2616170;39;20544;-75
2021/12/30 18:05:33;;;;;;;1.40;1.40;;;;;;;5.75;68.31;94824.13;2615337;47;20172;-76
2021/12/30 18:08:05;;;;;;;0.87;0.87;;;;;;;6.58;68.83;94910.75;2615285;54;20205;-73
2021/12/30 18:10:34;;;;;;;1.07;1.07;;;;;;;6.78;67.47;94942.78;2615297;54;20157;-77
2021/12/30 18:13:07;;;;;;;3.00;2.73;;;;;;;6.91;66.68;94949.75;2615594;54;20216;-78
2021/12/30 18:15:38;;;;;;;0.90;0.90;;;;;;;6.36;68.46;94940.56;2615982;54;20176;-75
2021/12/30 18:21:01;;;;;;;0.60;0.60;;;;;;;6.84;68.15;94955.69;2614915;47;20183;-77
2021/12/30 18:26:24;;;;;;;0.85;0.85;;;;;;;7.43;65.66;94970.63;2615029;47;20396;-77
2021/12/30 18:28:56;;;;;;;0.77;0.77;;;;;;;6.45;65.98;94868.56;2615507;54;20160;-76
2021/12/30 18:31:26;;;;;;;1.17;1.07;;;;;;;6.40;67.47;94923.91;2615522;47;20184;-74
2021/12/30 18:33:54;;;;;;;1.50;1.40;;;;;;;6.88;69.15;94990.41;2616541;39;20773;-77
2021/12/30 18:36:23;;;;;;;2.17;2.03;;;;;;;6.89;68.25;94989.06;2615066;47;20430;-76
2021/12/30 18:38:58;;;;;;;0.50;0.50;;;;;;;6.80;67.07;94987.19;2615240;31;20720;-76
2021/12/30 18:41:26;;;;;;;0.40;0.40;;;;;;;6.45;67.00;94942.44;2615088;54;20160;-75
2021/12/30 18:43:58;;;;;;;0.90;0.90;;;;;;;6.21;68.79;94918.69;2614807;54;20463;-75
2021/12/30 18:46:26;;;;;;;0.73;0.73;;;;;;;6.49;68.48;94998.22;2615221;54;20161;-75
2021/12/30 18:48:55;;;;;;;1.10;1.10;;;;;;;6.18;70.23;94923.47;2613168;54;20200;-74
2021/12/30 18:51:24;;;;;;;1.47;0.70;;;;;;;6.75;68.64;94999.59;2613502;47;20180;-74
2021/12/30 18:53:53;;;;;;;1.07;0.97;;;;;;;6.41;68.79;94976.75;2613575;47;20169;-74
2021/12/30 18:56:23;;;;;;;0.73;0.73;;;;;;;5.80;69.02;94933.34;2610514;54;21253;-74
2021/12/30 18:58:52;;;;;;;0.67;0.67;;;;;;;6.00;69.89;94982.28;2614958;54;20180;-75
2021/12/30 19:01:24;;;;;;;1.00;1.00;;;;;;;6.12;70.96;94987.84;2614057;54;20708;-75
2021/12/30 19:03:53;;;;;;;4.40;1.37;;;;;;;6.34;70.50;94983.38;2614567;47;20181;-75
2021/12/30 19:06:22;;;;;;;0.67;0.67;;;;;;;6.16;69.26;94999.28;2610219;47;20206;-75
2021/12/30 19:08:51;;;;;;;0.50;0.50;;;;;;;6.24;69.60;94996.91;2613099;47;20404;-75
2021/12/30 19:11:20;;;;;;;1.00;1.00;;;;;;;6.26;70.24;95004.75;2614680;47;20164;-75
2021/12/30 19:13:48;;;;;;;0.40;0.40;;;;;;;5.48;69.43;94912.63;2613320;54;20180;-75
2021/12/30 19:16:21;;;;;;;0.40;0.40;;;;;;;5.55;70.68;94976.25;2613038;54;20547;-75
2021/12/30 19:18:52;;;;;;;1.05;1.05;;;;;;;5.27;71.10;94952.16;2612676;47;20532;-74
2021/12/30 19:21:21;;;;;;;1.13;1.13;;;;;;;5.89;73.13;95027.31;2611648;54;20411;-74
2021/12/30 19:23:50;;;;;;;2.00;1.90;;;;;;;6.06;71.50;95035.28;2614449;54;20403;-75
2021/12/30 19:26:20;;;;;;;0.50;0.50;;;;;;;6.19;69.62;95000.84;2613724;47;20188;-75
2021/12/30 19:28:49;;;;;;;0.90;0.90;;;;;;;5.95;70.73;94948.94;2613877;47;20184;-75
2021/12/30 19:31:20;;;;;;;0.60;0.60;;;;;;;6.14;70.70;94978.78;2614746;54;20153;-75
2021/12/30 19:33:52;;;;;;;1.20;1.20;;;;;;;5.47;69.53;94897.13;2613921;47;20451;-74
2021/12/30 19:36:35;;;;;;;0.40;0.40;;;;;;;6.03;70.00;95014.75;2614210;47;20824;-79
2021/12/30 19:39:08;;;;;;;0.60;0.60;;;;;;;6.19;69.67;95051.47;2615523;54;20183;-81
2021/12/30 19:41:38;;;;;;;0.67;0.67;;;;;;;6.03;69.04;94983.09;2615631;47;20157;-81
2021/12/30 19:44:11;;;;;;;2.03;1.93;;;;;;;5.35;69.24;94869.09;2615191;54;20202;-81
2021/12/30 19:46:42;;;;;;;0.70;0.70;;;;;;;5.79;67.97;94954.38;2615423;47;20412;-81
2021/12/30 19:49:18;;;;;;;0.47;0.47;;;;;;;5.41;67.89;94857.47;2615577;54;20176;-78
2021/12/30 19:51:47;;;;;;;1.00;1.00;;;;;;;4.66;69.58;94735.44;2605880;54;20268;-78
2021/12/30 19:54:17;;;;;;;1.07;1.07;;;;;;;5.63;70.67;94968.25;2615208;54;20712;-77
2021/12/30 19:56:49;;;;;;;0.77;0.60;;;;;;;6.23;72.41;95000.34;2615435;39;20566;-80
2021/12/30 19:59:18;;;;;;;0.40;0.40;;;;;;;4.73;68.62;94821.41;2615541;54;20176;-80
2021/12/30 20:01:47;;;;;;;0.90;0.90;;;;;;;6.31;69.73;95046.50;2615438;54;20180;-78
2021/12/30 20:04:20;;;;;;;0.50;0.50;;;;;;;6.06;69.69;95035.28;2615360;54;20152;-79
2021/12/30 20:06:50;;;;;;;0.47;0.47;;;;;;;4.47;70.06;94817.13;2615318;54;20202;-80
2021/12/30 20:09:18;;;;;;;0.63;0.63;;;;;;;4.01;71.34;94793.44;2614911;54;20153;-78
2021/12/30 20:11:47;;;;;;;0.80;0.80;;;;;;;3.76;71.39;94771.66;2615361;54;20175;-80
2021/12/30 20:14:17;;;;;;;1.40;1.30;;;;;;;5.09;71.96;94912.56;2615000;54;20500;-79
2021/12/30 20:16:48;;;;;;;1.77;1.70;;;;;;;6.14;71.02;95071.59;2614911;47;20157;-80
2021/12/30 20:19:20;;;;;;;0.80;0.80;;;;;;;6.00;70.86;95029.34;2615115;54;20685;-77
2021/12/30 20:21:51;;;;;;;0.53;0.53;;;;;;;6.16;72.30;95010.53;2615276;47;20169;-80
2021/12/30 20:24:20;;;;;;;1.20;1.20;;;;;;;5.94;70.13;94989.63;2614670;47;20444;-81
2021/12/30 20:26:50;;;;;;;1.17;1.17;;;;;;;5.70;70.75;95006.59;2615165;54;20715;-81
2021/12/30 20:29:19;;;;;;;1.13;1.13;;;;;;;3.50;70.30;94644.81;2615208;47;20660;-80
2021/12/30 20:31:50;;;;;;;0.60;0.60;;;;;;;6.48;69.34;95047.41;2615341;54;20169;-78
2021/12/30 20:34:21;;;;;;;1.40;1.30;;;;;;;6.69;70.00;95025.34;2614989;54;20141;-83
2021/12/30 20:36:50;;;;;;;0.40;0.40;;;;;;;5.70;68.46;94933.53;2615059;54;20258;-77
2021/12/30 20:39:20;;;;;;;0.90;0.90;;;;;;;5.39;70.38;94954.94;2612672;47;20297;-78
2021/12/30 20:41:49;;;;;;;2.10;2.00;;;;;;;6.40;70.51;95016.75;2613127;54;20419;-76
2021/12/30 20:44:20;;;;;;;1.27;1.17;;;;;;;7.05;68.66;95026.50;2613846;54;20211;-76
2021/12/30 20:46:49;;;;;;;1.07;1.07;;;;;;;6.72;69.16;94989.56;2612750;47;20160;-76
2021/12/30 20:49:18;;;;;;;0.97;0.97;;;;;;;5.48;68.11;94861.31;2614869;54;20168;-76
2021/12/30 20:51:50;;;;;;;3.67;0.77;;;;;;;6.71;68.32;95042.31;2615030;54;20164;-77
2021/12/30 20:54:19;;;;;;;1.30;1.30;;;;;;;6.91;69.61;95039.84;2614828;54;20196;-75
2021/12/30 20:56:47;;;;;;;1.23;1.23;;;;;;;6.83;67.71;94996.47;2613412;54;20164;-75
2021/12/30 20:59:16;;;;;;;0.80;0.80;;;;;;;6.89;66.27;94994.69;2614050;54;20276;-76
2021/12/30 21:01:45;;;;;;;1.75;1.23;;;;;;;7.16;67.45;95027.75;2615156;47;20388;-76
2021/12/30 21:04:13;;;;;;;0.60;0.60;;;;;;;6.56;65.99;94949.34;2615073;54;20160;-77
2021/12/30 21:06:43;;;;;;;0.77;0.77;;;;;;;7.03;66.28;95054.56;2615134;54;20251;-78
2021/12/30 21:09:14;;;;;;;1.80;1.70;;;;;;;6.01;68.92;94929.59;2615750;39;20675;-74
2021/12/30 21:11:43;;;;;;;0.60;0.60;;;;;;;6.42;68.95;95000.00;2614957;47;20212;-77
2021/12/30 21:14:12;;;;;;;2.23;1.20;;;;;;;5.14;69.16;94809.63;2615752;46;20169;-79
2021/12/30 21:16:41;;;;;;;1.40;1.37;;;;;;;6.50;67.52;95006.03;2615937;54;20673;-76
2021/12/30 21:19:24;;;;;;;0.50;0.50;;;;;;;4.18;69.26;94691.41;2616457;54;20161;-79
2021/12/30 21:21:54;;;;;;;1.10;1.03;;;;;;;4.19;69.22;94659.22;2616882;46;20165;-80
2021/12/30 21:24:39;;;;;;;0.60;0.60;;;;;;;4.06;69.33;94671.81;2615233;47;20284;-74
2021/12/30 21:27:08;;;;;;;0.50;0.50;;;;;;;5.54;69.25;94937.53;2615459;54;20149;-75
2021/12/30 21:29:37;;;;;;;1.17;1.17;;;;;;;5.57;70.06;94987.59;2615675;54;20220;-74
2021/12/30 21:35:29;;;;;;;1.03;0.80;;;;;;;5.00;72.13;95000.47;2616874;46;20164;-76
2021/12/30 21:37:58;;;;;;;2.20;2.00;;;;;;;5.14;72.36;95018.13;2615893;54;20165;-76
2021/12/30 21:41:18;;;;;;;0.97;0.97;;;;;;;5.38;71.33;94971.06;2614625;54;20188;-84
2021/12/30 21:43:50;;;;;;;0.80;0.80;;;;;;;5.37;72.46;95003.28;2615501;47;20204;-79
2021/12/30 21:46:19;;;;;;;0.50;0.50;;;;;;;5.10;72.22;95011.53;2615900;47;20195;-83
2021/12/30 21:48:48;;;;;;;0.60;0.60;;;;;;;4.65;73.07;94936.69;2616189;54;20187;-80
2021/12/30 21:51:17;;;;;;;0.80;0.80;;;;;;;5.15;72.58;94987.97;2616988;39;20910;-78
2021/12/30 21:57:02;;;;;;;1.10;1.10;;;;;;;4.48;72.07;94908.31;2616051;47;20159;-80
2021/12/30 21:59:35;;;;;;;0.50;0.50;;;;;;;4.86;73.30;94989.13;2615715;54;20161;-79
2021/12/30 22:02:26;;;;;;;0.50;0.50;;;;;;;3.41;72.79;94760.47;2615526;54;20152;-80
2021/12/30 22:04:54;;;;;;;0.30;0.30;;;;;;;5.32;73.27;95029.69;2614381;54;20160;-79
2021/12/30 22:10:12;;;;;;;1.10;1.10;;;;;;;3.36;73.15;94775.56;2615342;47;20688;-80
2021/12/30 22:12:41;;;;;;;0.60;0.60;;;;;;;5.18;73.39;95031.69;2615486;54;20196;-79
2021/12/30 22:15:27;;;;;;;0.50;0.50;;;;;;;5.27;72.91;95016.75;2615583;54;20153;-80
2021/12/30 22:17:56;;;;;;;1.03;0.93;;;;;;;5.11;72.75;94984.94;2615402;54;20692;-80
2021/12/30 22:20:28;;;;;;;0.70;0.70;;;;;;;5.14;71.71;94975.28;2615335;47;20181;-82
2021/12/30 22:22:58;;;;;;;1.00;0.93;;;;;;;5.05;72.61;95001.44;2614788;39;21014;-80
2021/12/30 22:25:34;;;;;;;0.53;0.53;;;;;;;4.14;73.63;94831.31;2615590;54;20145;-82
2021/12/30 22:28:04;;;;;;;0.93;0.93;;;;;;;5.77;73.80;95091.25;2616263;47;20254;-78
2021/12/30 22:30:35;;;;;;;0.97;0.93;;;;;;;5.21;72.96;95078.19;2615647;54;20160;-78
2021/12/30 22:35:52;;;;;;;1.07;1.07;;;;;;;4.36;74.68;94880.31;2615406;47;20268;-79
2021/12/30 22:38:21;;;;;;;0.57;0.57;;;;;;;5.18;73.15;95028.88;2615204;47;20172;-79
2021/12/30 22:41:06;;;;;;;0.80;0.80;;;;;;;5.62;73.69;95101.66;2615303;54;20157;-78
2021/12/30 22:43:36;;;;;;;0.40;0.40;;;;;;;5.48;73.08;95092.41;2614769;54;20177;-77
2021/12/30 22:46:08;;;;;;;1.40;1.30;;;;;;;4.97;74.10;95005.22;2614910;54;20264;-79
2021/12/30 22:48:45;;;;;;;0.80;0.80;;;;;;;5.84;73.38;95093.78;2615469;54;20161;-80
2021/12/30 22:51:15;;;;;;;1.37;1.37;;;;;;;5.82;73.70;95099.28;2615500;47;20169;-79
2021/12/30 22:53:44;;;;;;;0.40;0.40;;;;;;;6.01;73.30;95073.00;2615175;54;20211;-79
2021/12/30 22:56:13;;;;;;;0.70;0.70;;;;;;;6.07;71.02;95082.47;2615127;54;20252;-77
2021/12/30 22:58:44;;;;;;;1.13;1.13;;;;;;;5.71;71.71;95058.66;2614900;39;20493;-77
2021/12/30 23:01:17;;;;;;;0.67;0.67;;;;;;;5.44;72.91;95030.41;2615363;47;20207;-80
2021/12/30 23:03:50;;;;;;;1.60;1.50;;;;;;;5.87;72.90;95030.00;2612794;47;20255;-80
2021/12/30 23:06:20;;;;;;;0.70;0.70;;;;;;;6.30;71.57;95061.19;2614940;54;20172;-78
2021/12/30 23:08:50;;;;;;;2.90;1.30;;;;;;;6.43;72.00;95064.06;2614233;54;20156;-76
2021/12/30 23:11:21;;;;;;;1.17;1.17;;;;;;;6.12;70.11;95080.63;2614399;54;20172;-81
2021/12/30 23:13:50;;;;;;;0.97;0.93;;;;;;;5.91;71.20;95035.84;2615475;47;20167;-80
2021/12/30 23:16:23;;;;;;;0.83;0.83;;;;;;;6.12;70.77;95043.34;2615186;54;20171;-80